Time;durP1;ratioP1;P1;durP2;ratioP2;P2;SDS_P1;SDS_P2;PMS_P1;PMS_P2;Temp;Humidity;BMP_temperature;BMP_pressure;BME280_temperature;BME280_humidity;BME280_pressure;Samples;Min_cycle;Max_cycle;Signal;HPM_P1;HPM_P2
2021/12/26 00:00:29;;;;;;;;;;;;;;;22.05;23.34;97395.31;4997388;28;759;-73
2021/12/26 00:02:55;;;;;;;;;;;;;;;21.94;23.82;97397.75;4936753;29;896;-74
2021/12/26 00:05:20;;;;;;;;;;;;;;;21.13;24.74;97399.41;4936769;29;1075;-74
2021/12/26 00:07:46;;;;;;;;;;;;;;;21.85;24.02;97390.78;4936654;29;835;-74
2021/12/26 00:10:12;;;;;;;;;;;;;;;21.90;23.93;97403.53;4921531;29;736;-74
2021/12/26 00:12:38;;;;;;;;;;;;;;;21.82;23.67;97403.03;4920755;29;1172;-74
2021/12/26 00:15:03;;;;;;;;;;;;;;;21.22;24.64;97400.28;4936858;29;778;-74
2021/12/26 00:17:29;;;;;;;;;;;;;;;21.83;23.91;97410.28;4936531;29;1967;-73
2021/12/26 00:19:54;;;;;;;;;;;;;;;21.98;23.61;97409.75;4936362;29;888;-74
2021/12/26 00:22:20;;;;;;;;;;;;;;;22.00;23.62;97413.69;4936785;29;857;-74
2021/12/26 00:24:46;;;;;;;;;;;;;;;21.70;24.20;97406.69;4936323;29;1234;-73
2021/12/26 00:27:12;;;;;;;;;;;;;;;22.76;22.75;97417.28;4936411;29;1236;-73
2021/12/26 00:29:38;;;;;;;;;;;;;;;22.56;22.61;97414.81;4952681;29;818;-73
2021/12/26 00:32:05;;;;;;;;;;;;;;;22.07;23.39;97412.63;4904832;29;1353;-73
2021/12/26 00:34:30;;;;;;;;;;;;;;;22.04;23.42;97407.91;4951158;29;788;-73
2021/12/26 00:36:56;;;;;;;;;;;;;;;20.74;25.49;97410.78;4955229;29;1977;-73
2021/12/26 00:39:21;;;;;;;;;;;;;;;21.82;23.96;97396.59;4955741;29;855;-73
2021/12/26 00:41:47;;;;;;;;;;;;;;;21.87;24.02;97403.69;4955586;29;732;-74
2021/12/26 00:44:12;;;;;;;;;;;;;;;21.63;24.41;97395.66;4956007;29;1085;-73
2021/12/26 00:46:38;;;;;;;;;;;;;;;21.77;23.83;97409.28;4971434;28;803;-74
2021/12/26 00:49:03;;;;;;;;;;;;;;;21.88;23.81;97406.06;4986182;28;767;-73
2021/12/26 00:51:29;;;;;;;;;;;;;;;22.01;23.74;97406.75;5011875;28;763;-74
2021/12/26 00:53:54;;;;;;;;;;;;;;;21.49;24.39;97396.94;4979157;28;1073;-73
2021/12/26 00:56:20;;;;;;;;;;;;;;;21.46;24.41;97402.75;4996596;28;805;-73
2021/12/26 00:58:46;;;;;;;;;;;;;;;21.97;23.94;97400.47;4996763;28;1902;-73
2021/12/26 01:01:11;;;;;;;;;;;;;;;21.94;23.80;97406.25;4979245;28;1069;-73
2021/12/26 01:03:37;;;;;;;;;;;;;;;21.59;24.30;97397.81;4974412;28;1327;-73
2021/12/26 01:06:02;;;;;;;;;;;;;;;21.70;24.22;97395.38;4959375;29;1240;-73
2021/12/26 01:08:30;;;;;;;;;;;;;;;21.71;24.13;97391.31;4945403;29;1795;-73
2021/12/26 01:10:59;;;;;;;;;;;;;;;21.92;23.96;97394.59;4959115;29;1131;-73
2021/12/26 01:13:33;;;;;;;;;;;;;;;21.88;23.84;97388.28;4954907;29;1197;-74
2021/12/26 01:16:26;;;;;;;;;;;;;;;21.56;24.21;97390.25;4845909;29;1095;-73
2021/12/26 01:18:52;;;;;;;;;;;;;;;21.15;24.88;97380.75;4861388;29;1903;-73
2021/12/26 01:21:22;;;;;;;;;;;;;;;21.57;24.48;97386.16;4861478;29;1144;-73
2021/12/26 01:23:55;;;;;;;;;;;;;;;21.89;23.85;97381.38;4845678;29;1422;-74
2021/12/26 01:26:21;;;;;;;;;;;;;;;21.37;24.40;97371.53;4827492;29;1138;-73
2021/12/26 01:28:47;;;;;;;;;;;;;;;21.61;24.41;97375.50;4827725;29;967;-73
2021/12/26 01:31:18;;;;;;;;;;;;;;;21.90;23.81;97368.78;4827620;29;1403;-74
2021/12/26 01:33:49;;;;;;;;;;;;;;;21.90;23.84;97363.09;4818861;29;1158;-73
2021/12/26 01:36:33;;;;;;;;;;;;;;;21.66;24.17;97372.09;4845680;29;1120;-73
2021/12/26 01:39:17;;;;;;;;;;;;;;;21.71;24.47;97363.00;4826904;29;1904;-74
2021/12/26 01:42:10;;;;;;;;;;;;;;;22.82;22.46;97367.97;4825478;29;960;-74
2021/12/26 01:45:01;;;;;;;;;;;;;;;22.18;23.38;97350.72;4841061;29;982;-73
2021/12/26 01:47:34;;;;;;;;;;;;;;;22.07;23.53;97350.28;4830153;29;1124;-73
2021/12/26 01:50:00;;;;;;;;;;;;;;;21.58;24.21;97354.56;4845561;29;1018;-73
2021/12/26 01:52:25;;;;;;;;;;;;;;;22.68;22.77;97354.38;4833060;29;1302;-74
2021/12/26 01:55:01;;;;;;;;;;;;;;;22.75;22.48;97356.94;4868918;29;1258;-73
2021/12/26 01:57:27;;;;;;;;;;;;;;;22.07;23.64;97355.97;4872116;29;1981;-73
2021/12/26 01:59:53;;;;;;;;;;;;;;;21.83;24.06;97359.31;4848402;29;1216;-73
2021/12/26 02:02:24;;;;;;;;;;;;;;;21.94;23.65;97360.94;4863787;29;1163;-73
2021/12/26 02:04:50;;;;;;;;;;;;;;;21.57;24.57;97357.84;4879043;29;1147;-73
2021/12/26 02:07:16;;;;;;;;;;;;;;;21.85;23.80;97356.78;4876271;29;1469;-74
2021/12/26 02:09:45;;;;;;;;;;;;;;;21.90;24.04;97363.09;4894488;29;1150;-73
2021/12/26 02:12:15;;;;;;;;;;;;;;;22.05;23.68;97347.16;4885247;29;1430;-73
2021/12/26 02:14:40;;;;;;;;;;;;;;;21.82;23.88;97352.06;4884841;29;1335;-73
2021/12/26 02:17:15;;;;;;;;;;;;;;;21.69;24.33;97348.50;4900694;29;1984;-74
2021/12/26 02:19:41;;;;;;;;;;;;;;;22.11;23.32;97353.81;4885511;29;1217;-73
2021/12/26 02:22:12;;;;;;;;;;;;;;;21.61;24.33;97352.88;4920478;29;1332;-74
2021/12/26 02:27:31;;;;;;;;;;;;;;;21.80;24.15;97354.53;4909578;29;1433;-74
2021/12/26 02:30:04;;;;;;;;;;;;;;;21.84;24.13;97352.38;4922774;29;1119;-73
2021/12/26 02:32:31;;;;;;;;;;;;;;;21.97;24.01;97360.03;4938628;29;1125;-74
2021/12/26 02:34:57;;;;;;;;;;;;;;;21.58;24.22;97365.09;4943218;28;1406;-74
2021/12/26 02:37:22;;;;;;;;;;;;;;;22.56;23.01;97363.78;4979226;28;1975;-74
2021/12/26 02:39:48;;;;;;;;;;;;;;;22.57;23.06;97354.81;4962020;28;1262;-73
2021/12/26 02:42:16;;;;;;;;;;;;;;;21.76;23.87;97359.56;4961772;28;1221;-73
2021/12/26 02:44:42;;;;;;;;;;;;;;;22.08;23.74;97354.72;4979331;28;712;-73
2021/12/26 02:47:08;;;;;;;;;;;;;;;21.98;23.74;97358.75;4979361;28;755;-73
2021/12/26 02:49:33;;;;;;;;;;;;;;;22.07;23.52;97361.63;4962146;28;1144;-74
2021/12/26 02:51:59;;;;;;;;;;;;;;;21.93;24.09;97356.53;4979209;28;799;-73
2021/12/26 02:54:24;;;;;;;;;;;;;;;21.87;24.12;97353.50;4961581;28;1237;-74
2021/12/26 02:56:50;;;;;;;;;;;;;;;22.15;23.53;97359.34;4918881;29;1138;-74
2021/12/26 02:59:15;;;;;;;;;;;;;;;22.07;23.79;97355.97;4886885;29;1968;-74
2021/12/26 03:01:41;;;;;;;;;;;;;;;22.07;23.56;97355.97;4918544;29;778;-74
2021/12/26 03:04:08;;;;;;;;;;;;;;;21.51;24.59;97354.84;4919048;29;1177;-73
2021/12/26 03:06:46;;;;;;;;;;;;;;;21.47;24.46;97359.03;4918687;29;1185;-73
2021/12/26 03:09:12;;;;;;;;;;;;;;;21.84;24.14;97349.53;4899894;29;1111;-73
2021/12/26 03:11:38;;;;;;;;;;;;;;;21.92;23.99;97357.78;4884581;29;853;-74
2021/12/26 03:14:04;;;;;;;;;;;;;;;22.51;23.08;97364.41;4900249;29;950;-73
2021/12/26 03:16:30;;;;;;;;;;;;;;;22.56;23.06;97363.78;4862127;29;954;-73
2021/12/26 03:18:56;;;;;;;;;;;;;;;22.08;23.47;97363.22;4847104;29;1981;-73
2021/12/26 03:21:22;;;;;;;;;;;;;;;22.04;23.72;97365.41;4846915;29;1252;-73
2021/12/26 03:23:47;;;;;;;;;;;;;;;21.97;24.07;97360.81;4869036;29;1065;-74
2021/12/26 03:26:13;;;;;;;;;;;;;;;21.93;23.97;97362.19;4861410;29;1097;-73
2021/12/26 03:28:39;;;;;;;;;;;;;;;22.87;22.85;97366.56;4893206;29;1245;-73
2021/12/26 03:31:06;;;;;;;;;;;;;;;22.92;22.29;97368.03;4899546;29;1211;-74
2021/12/26 03:33:34;;;;;;;;;;;;;;;21.82;24.03;97357.72;4896337;29;1354;-73
2021/12/26 03:35:59;;;;;;;;;;;;;;;21.89;23.94;97355.88;4898432;29;917;-74
2021/12/26 03:38:25;;;;;;;;;;;;;;;21.19;25.09;97358.78;4899459;29;1903;-73
2021/12/26 03:41:16;;;;;;;;;;;;;;;22.24;23.71;97365.84;4861792;29;939;-73
2021/12/26 03:43:50;;;;;;;;;;;;;;;22.91;22.67;97360.78;4862335;29;1362;-73
2021/12/26 03:46:17;;;;;;;;;;;;;;;22.24;23.28;97360.19;4864652;29;1221;-74
2021/12/26 03:48:43;;;;;;;;;;;;;;;21.73;24.28;97354.81;4846593;29;900;-73
2021/12/26 03:51:08;;;;;;;;;;;;;;;21.97;24.03;97354.34;4846554;29;1527;-74
2021/12/26 03:53:34;;;;;;;;;;;;;;;21.37;24.55;97363.03;4862251;29;777;-73
2021/12/26 03:56:01;;;;;;;;;;;;;;;21.67;24.63;97368.00;4831977;29;1318;-73
2021/12/26 03:58:28;;;;;;;;;;;;;;;21.84;24.07;97371.41;4898957;29;1910;-73
2021/12/26 04:00:54;;;;;;;;;;;;;;;22.36;23.23;97370.63;4899191;29;1692;-73
2021/12/26 04:03:21;;;;;;;;;;;;;;;22.83;22.70;97378.03;4883630;29;1256;-74
2021/12/26 04:05:53;;;;;;;;;;;;;;;22.21;23.67;97383.78;4883291;29;1256;-74
2021/12/26 04:08:19;;;;;;;;;;;;;;;22.07;23.50;97373.78;4898989;29;1255;-74
2021/12/26 04:10:44;;;;;;;;;;;;;;;21.92;24.06;97377.63;4899187;29;931;-73
2021/12/26 04:13:10;;;;;;;;;;;;;;;22.09;23.99;97376.13;4898961;29;1182;-73
2021/12/26 04:15:35;;;;;;;;;;;;;;;22.62;23.00;97395.94;4898923;29;1255;-73
2021/12/26 04:18:02;;;;;;;;;;;;;;;22.66;22.69;97396.59;4923435;28;1902;-73
2021/12/26 04:20:29;;;;;;;;;;;;;;;21.89;23.80;97392.69;4992107;28;1198;-73
2021/12/26 04:22:54;;;;;;;;;;;;;;;21.90;24.10;97397.09;4976102;28;834;-72
2021/12/26 04:25:20;;;;;;;;;;;;;;;21.76;24.23;97399.22;4979502;28;1522;-74
2021/12/26 04:27:46;;;;;;;;;;;;;;;22.68;23.02;97405.41;4999176;28;1121;-74
2021/12/26 04:30:12;;;;;;;;;;;;;;;22.76;22.95;97406.72;4998812;28;1292;-73
2021/12/26 04:32:37;;;;;;;;;;;;;;;22.19;23.65;97403.31;4997440;28;1273;-73
2021/12/26 04:35:03;;;;;;;;;;;;;;;22.02;23.86;97410.38;4997486;28;932;-73
2021/12/26 04:37:28;;;;;;;;;;;;;;;21.88;24.07;97399.63;5014110;28;1898;-73
2021/12/26 04:39:54;;;;;;;;;;;;;;;21.99;24.28;97394.34;4974908;28;1188;-74
2021/12/26 04:42:19;;;;;;;;;;;;;;;22.51;23.32;97402.03;4958824;28;1089;-73
2021/12/26 04:45:08;;;;;;;;;;;;;;;22.91;22.59;97394.81;4898556;29;1010;-73
2021/12/26 04:47:52;;;;;;;;;;;;;;;22.19;23.70;97386.31;4898383;29;973;-73
2021/12/26 04:50:21;;;;;;;;;;;;;;;21.88;24.25;97397.56;4882916;29;1261;-74
2021/12/26 04:52:55;;;;;;;;;;;;;;;22.55;23.28;97393.41;4884060;29;1257;-73
2021/12/26 04:55:22;;;;;;;;;;;;;;;22.81;23.04;97389.09;4883213;29;1171;-73
2021/12/26 04:57:47;;;;;;;;;;;;;;;22.31;23.48;97387.47;4898133;29;1898;-73
2021/12/26 05:00:14;;;;;;;;;;;;;;;21.82;23.85;97402.25;4883224;29;1168;-73
2021/12/26 05:02:39;;;;;;;;;;;;;;;21.82;23.86;97394.53;4882961;29;1279;-73
2021/12/26 05:05:06;;;;;;;;;;;;;;;21.97;24.21;97405.34;4898908;29;1071;-73
2021/12/26 05:07:32;;;;;;;;;;;;;;;21.98;24.00;97404.88;4883149;29;995;-73
2021/12/26 05:09:57;;;;;;;;;;;;;;;22.11;23.70;97407.66;4887126;29;1011;-73
2021/12/26 05:12:24;;;;;;;;;;;;;;;21.77;24.16;97400.78;4920597;29;1329;-73
2021/12/26 05:14:51;;;;;;;;;;;;;;;21.54;24.64;97395.56;4936809;29;1023;-73
2021/12/26 05:17:16;;;;;;;;;;;;;;;21.31;24.79;97403.25;4920308;29;1906;-74
2021/12/26 05:19:42;;;;;;;;;;;;;;;21.04;25.20;97412.22;4916577;29;1267;-74
2021/12/26 05:22:07;;;;;;;;;;;;;;;21.54;24.59;97402.00;4928460;28;1265;-73
2021/12/26 05:24:33;;;;;;;;;;;;;;;21.84;24.08;97403.34;4919285;29;1413;-74
2021/12/26 05:26:59;;;;;;;;;;;;;;;22.03;23.76;97412.00;4897851;29;1428;-74
2021/12/26 05:29:25;;;;;;;;;;;;;;;22.07;23.82;97406.97;4879044;29;1325;-74
2021/12/26 05:31:52;;;;;;;;;;;;;;;22.21;23.87;97403.63;4841984;29;1301;-74
2021/12/26 05:34:18;;;;;;;;;;;;;;;21.87;24.06;97417.88;4826944;29;1243;-74
2021/12/26 05:36:44;;;;;;;;;;;;;;;21.92;24.11;97411.59;4879073;29;1218;-74
2021/12/26 05:39:10;;;;;;;;;;;;;;;22.63;22.99;97403.97;4871309;29;1997;-74
2021/12/26 05:41:36;;;;;;;;;;;;;;;22.04;23.94;97413.56;4878646;29;1301;-74
2021/12/26 05:44:10;;;;;;;;;;;;;;;22.07;23.67;97395.63;4871238;29;1193;-74
2021/12/26 05:46:37;;;;;;;;;;;;;;;21.95;24.09;97405.78;4871197;29;1229;-74
2021/12/26 05:49:02;;;;;;;;;;;;;;;22.00;23.81;97407.25;4850100;29;1536;-74
2021/12/26 05:51:37;;;;;;;;;;;;;;;21.85;24.00;97413.44;4852406;29;1296;-74
2021/12/26 05:54:25;;;;;;;;;;;;;;;22.06;23.66;97403.34;4881242;29;1098;-74
2021/12/26 05:56:51;;;;;;;;;;;;;;;21.29;25.07;97414.19;4885707;29;1244;-75
2021/12/26 05:59:16;;;;;;;;;;;;;;;21.92;24.12;97408.78;4904175;29;1976;-74
2021/12/26 06:01:42;;;;;;;;;;;;;;;22.10;24.03;97412.53;4929770;29;1307;-74
2021/12/26 06:04:07;;;;;;;;;;;;;;;21.90;24.03;97414.88;4918934;29;1229;-75
2021/12/26 06:06:33;;;;;;;;;;;;;;;21.77;24.09;97428.31;4921607;28;1225;-74
2021/12/26 06:09:19;;;;;;;;;;;;;;;21.23;24.94;97430.16;4931027;29;1077;-75
2021/12/26 06:11:45;;;;;;;;;;;;;;;21.92;24.20;97439.94;4914734;29;1788;-75
2021/12/26 06:14:12;;;;;;;;;;;;;;;21.97;24.03;97445.00;4937317;29;1291;-74
2021/12/26 06:16:37;;;;;;;;;;;;;;;21.50;24.57;97457.16;4881931;29;1313;-74
2021/12/26 06:19:09;;;;;;;;;;;;;;;22.80;23.17;97455.59;4873820;29;1911;-73
2021/12/26 06:21:57;;;;;;;;;;;;;;;22.43;23.28;97462.31;4838664;29;1212;-74
2021/12/26 06:24:45;;;;;;;;;;;;;;;21.79;24.51;97465.47;4842215;29;1370;-75
2021/12/26 06:27:30;;;;;;;;;;;;;;;21.52;24.52;97469.63;4841537;29;1351;-75
2021/12/26 06:30:14;;;;;;;;;;;;;;;21.95;23.83;97461.66;4823139;29;1081;-74
2021/12/26 06:32:51;;;;;;;;;;;;;;;22.64;23.45;97461.50;4811714;29;1240;-74
2021/12/26 06:35:36;;;;;;;;;;;;;;;22.41;23.18;97481.84;4825988;29;1096;-75
2021/12/26 06:38:20;;;;;;;;;;;;;;;21.82;24.32;97485.16;4825938;29;1911;-75
2021/12/26 06:41:04;;;;;;;;;;;;;;;21.61;24.45;97488.75;4852878;29;1106;-75
2021/12/26 06:44:01;;;;;;;;;;;;;;;22.22;23.57;97487.38;4852495;29;1040;-75
2021/12/26 06:46:45;;;;;;;;;;;;;;;21.60;24.56;97498.47;4850313;29;1429;-75
2021/12/26 06:49:31;;;;;;;;;;;;;;;21.94;24.20;97491.22;4852054;29;1152;-75
2021/12/26 06:51:56;;;;;;;;;;;;;;;21.81;24.35;97492.09;4852820;29;1311;-75
2021/12/26 06:54:23;;;;;;;;;;;;;;;22.01;23.84;97502.28;4837975;29;1345;-74
2021/12/26 06:56:49;;;;;;;;;;;;;;;21.54;24.82;97497.47;4825981;29;1246;-76
2021/12/26 06:59:14;;;;;;;;;;;;;;;21.72;24.88;97489.16;4803828;29;1976;-75
2021/12/26 07:01:42;;;;;;;;;;;;;;;22.08;23.88;97487.88;4771434;30;2213;-75
2021/12/26 07:04:10;;;;;;;;;;;;;;;21.94;24.16;97483.53;4742830;30;1590;-75
2021/12/26 07:06:37;;;;;;;;;;;;;;;21.99;24.23;97487.81;4768723;30;1268;-75
2021/12/26 07:09:08;;;;;;;;;;;;;;;21.51;24.64;97478.59;4757603;30;1232;-75
2021/12/26 07:11:33;;;;;;;;;;;;;;;22.06;24.14;97473.38;4790191;30;1316;-75
2021/12/26 07:13:59;;;;;;;;;;;;;;;22.12;24.07;97477.22;4788471;29;1196;-75
2021/12/26 07:16:25;;;;;;;;;;;;;;;21.80;24.30;97479.16;4789142;30;1359;-75
2021/12/26 07:18:51;;;;;;;;;;;;;;;22.03;23.89;97462.97;4814068;29;1919;-75
2021/12/26 07:21:21;;;;;;;;;;;;;;;22.16;23.70;97472.22;4828055;29;1442;-74
2021/12/26 07:24:02;;;;;;;;;;;;;;;22.14;23.72;97479.63;4826400;29;1211;-75
2021/12/26 07:26:28;;;;;;;;;;;;;;;21.95;23.98;97470.16;4835432;29;1345;-75
2021/12/26 07:28:53;;;;;;;;;;;;;;;21.71;24.46;97470.59;4868810;29;1357;-75
2021/12/26 07:31:25;;;;;;;;;;;;;;;21.64;24.45;97461.56;4869552;29;1304;-75
2021/12/26 07:33:55;;;;;;;;;;;;;;;21.26;25.17;97466.03;4921213;29;1481;-75
2021/12/26 07:36:21;;;;;;;;;;;;;;;22.51;23.29;97480.63;4937352;29;1200;-74
2021/12/26 07:38:56;;;;;;;;;;;;;;;22.25;23.81;97486.47;4916269;29;1964;-75
2021/12/26 07:41:24;;;;;;;;;;;;;;;21.96;24.09;97480.22;4917777;29;1400;-75
2021/12/26 07:43:51;;;;;;;;;;;;;;;22.01;24.14;97474.75;4899793;29;1373;-75
2021/12/26 07:46:35;;;;;;;;;;;;;;;21.70;24.52;97480.31;4913367;29;1436;-75
2021/12/26 07:49:05;;;;;;;;;;;;;;;21.67;24.54;97489.75;4917893;29;1353;-75
2021/12/26 07:51:51;;;;;;;;;;;;;;;21.90;24.10;97496.22;4912410;29;1130;-75
2021/12/26 07:54:35;;;;;;;;;;;;;;;21.93;24.38;97509.50;4907890;29;1288;-75
2021/12/26 07:57:21;;;;;;;;;;;;;;;20.69;26.20;97515.97;4826823;29;1899;-75
2021/12/26 08:00:11;;;;;;;;;;;;;;;22.54;23.52;97527.91;4825095;29;1055;-75
2021/12/26 08:02:57;;;;;;;;;;;;;;;22.36;23.73;97537.06;4838707;29;1031;-75
2021/12/26 08:05:41;;;;;;;;;;;;;;;21.90;24.34;97533.06;4843156;29;946;-75
2021/12/26 08:08:15;;;;;;;;;;;;;;;21.21;25.27;97528.06;4828210;29;1187;-74
2021/12/26 08:10:40;;;;;;;;;;;;;;;22.52;23.78;97533.25;4813302;29;1155;-75
2021/12/26 08:13:07;;;;;;;;;;;;;;;22.66;23.03;97538.38;4806680;29;1766;-75
2021/12/26 08:15:32;;;;;;;;;;;;;;;22.12;23.86;97541.59;4806557;29;1083;-75
2021/12/26 08:17:58;;;;;;;;;;;;;;;21.74;24.42;97543.28;4806444;29;1903;-75
2021/12/26 08:20:23;;;;;;;;;;;;;;;21.79;24.61;97539.09;4806539;29;1041;-75
2021/12/26 08:22:49;;;;;;;;;;;;;;;21.69;24.44;97538.22;4806469;29;1002;-76
2021/12/26 08:25:14;;;;;;;;;;;;;;;21.63;24.68;97531.53;4806301;29;1151;-75
2021/12/26 08:27:40;;;;;;;;;;;;;;;21.99;24.11;97528.25;4807420;29;1013;-75
2021/12/26 08:30:05;;;;;;;;;;;;;;;22.04;24.25;97526.88;4827928;29;986;-75
2021/12/26 08:32:33;;;;;;;;;;;;;;;21.79;24.70;97528.56;4843048;29;1010;-75
2021/12/26 08:35:04;;;;;;;;;;;;;;;21.63;24.67;97528.72;4841383;29;1105;-75
2021/12/26 08:37:30;;;;;;;;;;;;;;;21.82;24.36;97519.16;4843414;29;1986;-75
2021/12/26 08:39:56;;;;;;;;;;;;;;;22.03;24.39;97513.97;4842617;29;952;-75
2021/12/26 08:42:21;;;;;;;;;;;;;;;21.59;24.54;97519.53;4842935;29;985;-75
2021/12/26 08:44:47;;;;;;;;;;;;;;;21.57;24.69;97507.91;4842834;29;971;-75
2021/12/26 08:47:12;;;;;;;;;;;;;;;21.95;24.53;97512.63;4843006;29;929;-75
2021/12/26 08:49:38;;;;;;;;;;;;;;;22.11;23.97;97503.97;4847304;29;1096;-75
2021/12/26 08:52:05;;;;;;;;;;;;;;;21.66;24.91;97516.47;4882072;29;983;-75
2021/12/26 08:54:33;;;;;;;;;;;;;;;21.57;24.95;97510.72;4867425;29;1712;-75
2021/12/26 08:56:59;;;;;;;;;;;;;;;21.49;25.00;97520.69;4898004;29;1076;-75
2021/12/26 08:59:29;;;;;;;;;;;;;;;21.48;25.04;97513.47;4913669;29;1984;-75
2021/12/26 09:01:55;;;;;;;;;;;;;;;21.84;24.29;97513.81;4916881;29;919;-75
2021/12/26 09:04:21;;;;;;;;;;;;;;;21.81;24.55;97508.25;4917340;29;991;-75
2021/12/26 09:06:46;;;;;;;;;;;;;;;22.51;23.46;97511.81;4917195;29;982;-75
2021/12/26 09:09:11;;;;;;;;;;;;;;;22.86;23.24;97506.81;4917225;29;1005;-75
2021/12/26 09:11:37;;;;;;;;;;;;;;;22.06;24.08;97505.34;4917063;29;997;-75
2021/12/26 09:14:02;;;;;;;;;;;;;;;21.94;24.30;97494.06;4916981;29;891;-75
2021/12/26 09:16:33;;;;;;;;;;;;;;;21.85;24.54;97498.38;4919591;29;1039;-75
2021/12/26 09:18:59;;;;;;;;;;;;;;;22.10;24.08;97502.38;4935876;29;1987;-75
2021/12/26 09:21:24;;;;;;;;;;;;;;;23.02;22.77;97497.31;4936224;29;973;-74
2021/12/26 09:23:50;;;;;;;;;;;;;;;22.55;23.43;97486.97;4937374;29;1072;-75
2021/12/26 09:26:15;;;;;;;;;;;;;;;21.99;24.24;97496.31;4988303;28;991;-75
2021/12/26 09:28:41;;;;;;;;;;;;;;;21.90;24.46;97488.53;4999579;28;888;-75
2021/12/26 09:31:06;;;;;;;;;;;;;;;21.74;24.75;97497.19;5000070;28;929;-75
2021/12/26 09:33:32;;;;;;;;;;;;;;;21.80;24.60;97493.31;4999576;28;915;-75
2021/12/26 09:35:57;;;;;;;;;;;;;;;21.88;24.41;97496.69;4965010;28;1068;-75
2021/12/26 09:38:23;;;;;;;;;;;;;;;21.81;24.62;97497.75;4999573;28;1910;-75
2021/12/26 09:40:48;;;;;;;;;;;;;;;21.25;25.59;97501.25;4999407;28;1067;-75
2021/12/26 09:43:13;;;;;;;;;;;;;;;21.97;24.46;97498.81;4999643;28;870;-75
2021/12/26 09:45:39;;;;;;;;;;;;;;;21.91;24.54;97489.31;4999317;28;992;-75
2021/12/26 09:48:05;;;;;;;;;;;;;;;21.87;24.51;97491.50;4999337;28;861;-75
2021/12/26 09:50:30;;;;;;;;;;;;;;;22.57;23.50;97484.44;4999117;28;861;-75
2021/12/26 09:52:56;;;;;;;;;;;;;;;22.90;23.15;97489.66;4999208;28;1099;-75
2021/12/26 09:55:21;;;;;;;;;;;;;;;21.97;24.07;97488.28;4957831;29;996;-75
2021/12/26 09:57:47;;;;;;;;;;;;;;;21.59;24.63;97483.53;4958104;29;1877;-74
2021/12/26 10:00:26;;;;;;;;;;;;;;;21.25;25.40;97484.28;4958303;29;1029;-75
2021/12/26 10:03:09;;;;;;;;;;;;;;;22.48;24.08;97481.56;4957795;29;1060;-75
2021/12/26 10:05:53;;;;;;;;;;;;;;;22.58;23.37;97477.50;4957699;29;931;-75
2021/12/26 10:08:18;;;;;;;;;;;;;;;22.08;24.28;97482.22;4958092;29;934;-75
2021/12/26 10:10:44;;;;;;;;;;;;;;;22.04;24.23;97482.34;4957843;29;1065;-75
2021/12/26 10:13:09;;;;;;;;;;;;;;;22.07;24.29;97487.09;4955035;29;1100;-75
2021/12/26 10:15:48;;;;;;;;;;;;;;;21.51;25.27;97478.59;4940769;29;1487;-75
2021/12/26 10:18:29;;;;;;;;;;;;;;;21.70;24.60;97480.31;4938475;29;2033;-75
2021/12/26 10:20:54;;;;;;;;;;;;;;;21.78;24.69;97484.50;4922710;29;1015;-75
2021/12/26 10:23:26;;;;;;;;;;;;;;;22.03;24.56;97488.47;4938632;29;1079;-75
2021/12/26 10:25:52;;;;;;;;;;;;;;;21.49;25.37;97492.41;4938413;29;954;-75
2021/12/26 10:28:19;;;;;;;;;;;;;;;21.79;24.95;97483.25;4938870;29;928;-75
2021/12/26 10:30:52;;;;;;;;;;;;;;;21.73;24.58;97485.06;4938140;29;1098;-75
2021/12/26 10:33:40;;;;;;;;;;;;;;;22.02;24.42;97484.03;4924124;29;937;-75
2021/12/26 10:36:07;;;;;;;;;;;;;;;21.63;24.98;97486.25;4919297;29;974;-75
2021/12/26 10:38:33;;;;;;;;;;;;;;;22.80;23.18;97478.28;4903383;29;1915;-75
2021/12/26 10:40:59;;;;;;;;;;;;;;;22.87;23.19;97477.97;4881223;29;1295;-75
2021/12/26 10:43:24;;;;;;;;;;;;;;;22.75;23.40;97476.03;4863016;29;1138;-75
2021/12/26 10:45:50;;;;;;;;;;;;;;;21.93;24.33;97486.81;4860624;29;1023;-75
2021/12/26 10:48:22;;;;;;;;;;;;;;;21.85;24.51;97478.56;4863381;29;963;-75
2021/12/26 10:50:48;;;;;;;;;;;;;;;21.98;24.48;97483.41;4863053;29;910;-75
2021/12/26 10:53:14;;;;;;;;;;;;;;;21.66;24.98;97474.00;4862919;29;1073;-75
2021/12/26 10:55:40;;;;;;;;;;;;;;;21.35;25.54;97476.72;4862978;29;1134;-75
2021/12/26 10:58:06;;;;;;;;;;;;;;;21.60;25.13;97453.19;4862626;29;1981;-75
2021/12/26 11:00:33;;;;;;;;;;;;;;;21.85;24.85;97450.25;4826057;29;1007;-75
2021/12/26 11:03:04;;;;;;;;;;;;;;;21.32;25.67;97450.09;4810890;29;1058;-75
2021/12/26 11:05:58;;;;;;;;;;;;;;;21.08;25.72;97454.53;4844154;29;1168;-75
2021/12/26 11:08:26;;;;;;;;;;;;;;;21.74;25.06;97458.34;4807573;29;1218;-75
2021/12/26 11:10:52;;;;;;;;;;;;;;;21.40;25.17;97461.97;4807546;29;910;-75
2021/12/26 11:13:17;;;;;;;;;;;;;;;21.75;25.10;97464.78;4801411;29;1024;-75
2021/12/26 11:15:45;;;;;;;;;;;;;;;22.80;23.50;97464.09;4807804;29;1039;-75
2021/12/26 11:18:12;;;;;;;;;;;;;;;22.54;23.70;97462.72;4777971;29;1907;-75
2021/12/26 11:20:41;;;;;;;;;;;;;;;21.73;24.84;97468.09;4815031;29;976;-75
2021/12/26 11:23:11;;;;;;;;;;;;;;;21.33;25.72;97468.66;4789168;29;1068;-75
2021/12/26 11:25:37;;;;;;;;;;;;;;;22.20;23.97;97478.56;4789631;30;967;-75
2021/12/26 11:28:03;;;;;;;;;;;;;;;22.80;23.33;97472.59;4789129;30;1138;-75
2021/12/26 11:30:28;;;;;;;;;;;;;;;22.23;24.23;97480.47;4791560;29;1046;-75
2021/12/26 11:32:53;;;;;;;;;;;;;;;21.83;24.69;97478.25;4825516;29;1018;-75
2021/12/26 11:35:19;;;;;;;;;;;;;;;21.43;25.42;97466.72;4826218;29;1026;-75
2021/12/26 11:37:45;;;;;;;;;;;;;;;22.64;23.69;97467.19;4846624;29;1899;-75
2021/12/26 11:40:30;;;;;;;;;;;;;;;22.56;23.44;97466.66;4813219;29;1062;-75
2021/12/26 11:43:33;;;;;;;;;;;;;;;21.91;24.44;97483.66;4813939;29;964;-75
2021/12/26 11:46:35;;;;;;;;;;;;;;;21.56;24.84;97492.16;4848544;29;1014;-75
2021/12/26 11:50:02;;;;;;;;;;;;;;;22.23;24.48;97488.19;4753264;30;958;-75
2021/12/26 11:53:05;;;;;;;;;;;;;;;22.76;23.44;97491.81;4753488;30;973;-75
2021/12/26 11:56:06;;;;;;;;;;;;;;;22.40;23.85;97492.38;4753512;30;1138;-75
2021/12/26 11:58:42;;;;;;;;;;;;;;;21.70;24.79;97497.31;4752906;30;1911;-75
2021/12/26 12:01:13;;;;;;;;;;;;;;;21.59;25.36;97496.91;4753545;30;937;-75
2021/12/26 12:03:39;;;;;;;;;;;;;;;21.46;25.52;97490.50;4735475;30;993;-75
2021/12/26 12:06:06;;;;;;;;;;;;;;;21.97;24.55;97493.94;4735475;30;945;-75
2021/12/26 12:08:33;;;;;;;;;;;;;;;21.79;24.76;97483.25;4752807;30;946;-75
2021/12/26 12:10:58;;;;;;;;;;;;;;;21.84;24.71;97474.16;4717461;30;1025;-75
2021/12/26 12:13:26;;;;;;;;;;;;;;;22.04;24.56;97476.69;4717943;30;1070;-75
2021/12/26 12:16:01;;;;;;;;;;;;;;;22.91;23.64;97480.72;4718150;30;1058;-75
2021/12/26 12:18:31;;;;;;;;;;;;;;;22.80;23.52;97469.75;4761590;30;1900;-75
2021/12/26 12:21:05;;;;;;;;;;;;;;;22.06;24.47;97473.38;4802074;29;973;-74
2021/12/26 12:23:31;;;;;;;;;;;;;;;21.82;24.93;97470.22;4824345;29;1359;-75
2021/12/26 12:25:56;;;;;;;;;;;;;;;21.81;25.01;97460.94;4827395;29;980;-75
2021/12/26 12:28:26;;;;;;;;;;;;;;;21.23;25.81;97463.31;4843148;29;1298;-75
2021/12/26 12:31:14;;;;;;;;;;;;;;;21.85;24.82;97458.75;4806665;29;952;-75
2021/12/26 12:33:39;;;;;;;;;;;;;;;22.02;24.64;97467.03;4809354;29;1013;-75
2021/12/26 12:36:05;;;;;;;;;;;;;;;21.83;24.85;97469.75;4806347;29;1085;-75
2021/12/26 12:38:30;;;;;;;;;;;;;;;22.00;24.87;97470.34;4806188;29;1907;-75
2021/12/26 12:40:56;;;;;;;;;;;;;;;22.60;24.06;97469.34;4826086;29;1332;-75
2021/12/26 12:43:23;;;;;;;;;;;;;;;22.94;23.26;97462.75;4842875;29;1303;-75
2021/12/26 12:46:04;;;;;;;;;;;;;;;22.23;24.19;97466.31;4842677;29;979;-75
2021/12/26 12:48:40;;;;;;;;;;;;;;;21.96;24.71;97471.72;4842956;29;928;-75
2021/12/26 12:51:14;;;;;;;;;;;;;;;21.91;24.91;97460.97;4842569;29;957;-75
2021/12/26 12:53:40;;;;;;;;;;;;;;;21.56;25.37;97463.84;4842412;29;976;-75
2021/12/26 12:56:05;;;;;;;;;;;;;;;21.96;24.65;97464.00;4842933;29;1067;-75
2021/12/26 12:58:32;;;;;;;;;;;;;;;22.07;24.68;97474.94;4845340;29;1966;-75
2021/12/26 13:00:58;;;;;;;;;;;;;;;21.70;25.18;97469.00;4850684;29;969;-75
2021/12/26 13:03:23;;;;;;;;;;;;;;;21.47;25.50;97473.03;4867930;29;962;-75
2021/12/26 13:05:49;;;;;;;;;;;;;;;21.72;25.06;97475.00;4883520;29;949;-75
2021/12/26 13:08:16;;;;;;;;;;;;;;;22.07;24.75;97477.78;4882831;29;996;-75
2021/12/26 13:10:42;;;;;;;;;;;;;;;21.96;24.77;97480.22;4846151;29;971;-75
2021/12/26 13:13:08;;;;;;;;;;;;;;;21.12;26.05;97486.31;4846016;29;958;-75
2021/12/26 13:15:36;;;;;;;;;;;;;;;22.05;24.73;97497.31;4846107;29;988;-75